UOOO 252200Z 01013MPS CAVOK M02/M04 Q1025 R01/CLRD60 NOSIG RMK QFE754/1005
QNH:(hPa/inHg/mmHg)1025 / 30.27 / 769
QFE:(hPa/inHg/mmHg)1004 / 29.64 / 753
Temperature-2
Dew Point-4
Visibility> 10000
WeatherCAVOK
Cloud Cover
Transition Height1200 m./4600 ft.
Transition LevelFL60
SQUAWK